Time;durP1;ratioP1;P1;durP2;ratioP2;P2;SDS_P1;SDS_P2;PMS_P1;PMS_P2;Temp;Humidity;BMP_temperature;BMP_pressure;BME280_temperature;BME280_humidity;BME280_pressure;Samples;Min_cycle;Max_cycle;Signal;HPM_P1;HPM_P2
2020/12/27 00:00:29;;;;;;;6.67;5.90;;;4.50;99.90;;;;;;4993693;28;20488;-53
2020/12/27 00:02:57;;;;;;;7.20;6.03;;;4.60;99.90;;;;;;4995263;28;20484;-55
2020/12/27 00:05:24;;;;;;;6.37;5.73;;;4.50;99.90;;;;;;4996308;28;20516;-54
2020/12/27 00:07:52;;;;;;;6.83;5.43;;;4.50;99.90;;;;;;4996582;28;20501;-55
2020/12/27 00:10:19;;;;;;;6.13;5.37;;;4.50;99.90;;;;;;4994872;28;20488;-53
2020/12/27 00:12:47;;;;;;;10.43;6.27;;;4.50;99.90;;;;;;4994502;28;20515;-54
2020/12/27 00:15:14;;;;;;;6.17;5.57;;;4.50;99.90;;;;;;4996243;28;21002;-54
2020/12/27 00:17:43;;;;;;;6.33;5.60;;;4.40;99.90;;;;;;4995412;28;20505;-53
2020/12/27 00:20:10;;;;;;;6.50;5.83;;;4.40;99.90;;;;;;4995817;28;20974;-54
2020/12/27 00:22:38;;;;;;;6.20;5.67;;;4.40;99.90;;;;;;4996389;28;20491;-55
2020/12/27 00:25:06;;;;;;;7.17;5.90;;;4.40;99.90;;;;;;4999009;28;20486;-54
2020/12/27 00:27:33;;;;;;;7.33;5.90;;;4.40;99.90;;;;;;4999358;28;20495;-54
2020/12/27 00:30:00;;;;;;;5.73;5.10;;;4.40;99.90;;;;;;4998813;28;20491;-53
2020/12/27 00:32:28;;;;;;;5.27;4.77;;;4.40;99.90;;;;;;4996608;28;20996;-53
2020/12/27 00:34:56;;;;;;;5.90;5.40;;;4.40;99.90;;;;;;5013640;28;20560;-54
2020/12/27 00:37:23;;;;;;;6.17;5.63;;;4.40;99.90;;;;;;5008915;28;20476;-53
2020/12/27 00:39:53;;;;;;;5.63;5.13;;;4.40;99.90;;;;;;5009256;28;20532;-53
2020/12/27 00:42:22;;;;;;;6.43;5.40;;;4.30;99.90;;;;;;5009838;28;20468;-54
2020/12/27 00:44:49;;;;;;;6.13;5.53;;;4.30;99.90;;;;;;5010219;28;20483;-53
2020/12/27 00:47:16;;;;;;;6.10;5.47;;;4.30;99.90;;;;;;5009600;28;20475;-56
2020/12/27 00:49:43;;;;;;;6.33;5.77;;;4.30;99.90;;;;;;5010038;28;20462;-54
2020/12/27 00:52:11;;;;;;;5.87;5.37;;;4.30;99.90;;;;;;5010584;28;20575;-54
2020/12/27 00:54:38;;;;;;;5.70;5.10;;;4.30;99.90;;;;;;5011125;28;20480;-54
2020/12/27 00:57:05;;;;;;;6.97;5.47;;;4.30;99.90;;;;;;5011047;28;20483;-54
2020/12/27 00:59:34;;;;;;;6.23;5.00;;;4.30;99.90;;;;;;5009716;28;20991;-54
2020/12/27 01:02:02;;;;;;;6.57;4.90;;;4.30;99.90;;;;;;5010211;28;21031;-55
2020/12/27 01:05:05;;;;;;;6.53;4.80;;;4.30;99.90;;;;;;5000858;28;20511;-56
2020/12/27 01:07:35;;;;;;;5.97;4.90;;;4.30;99.90;;;;;;4992710;28;21045;-54
2020/12/27 01:10:14;;;;;;;5.30;4.80;;;4.40;99.90;;;;;;4992551;28;20480;-54
2020/12/27 01:12:42;;;;;;;7.50;5.33;;;4.30;99.90;;;;;;5008470;28;20766;-54
2020/12/27 01:15:12;;;;;;;6.07;4.47;;;4.40;99.90;;;;;;5010541;28;20488;-54
2020/12/27 01:18:01;;;;;;;5.10;4.43;;;4.40;99.90;;;;;;4992716;28;20506;-54
2020/12/27 01:20:29;;;;;;;5.50;5.00;;;4.40;99.90;;;;;;4992568;28;20521;-54
2020/12/27 01:22:57;;;;;;;5.90;4.93;;;4.40;99.90;;;;;;4991933;28;20509;-54
2020/12/27 01:25:32;;;;;;;5.77;4.60;;;4.40;99.90;;;;;;4992593;28;20494;-54
2020/12/27 01:28:00;;;;;;;5.43;4.80;;;4.40;99.90;;;;;;4992429;28;20476;-53
2020/12/27 01:30:28;;;;;;;7.47;4.73;;;4.40;99.90;;;;;;4993408;28;20563;-55
2020/12/27 01:33:01;;;;;;;5.00;4.50;;;4.40;99.90;;;;;;4992122;28;20552;-54
2020/12/27 01:35:46;;;;;;;5.53;4.57;;;4.50;99.90;;;;;;4992103;28;20470;-54
2020/12/27 01:38:15;;;;;;;4.70;4.30;;;4.40;99.90;;;;;;4992490;28;20890;-54
2020/12/27 01:40:43;;;;;;;4.67;4.27;;;4.50;99.90;;;;;;5009655;28;20518;-54
2020/12/27 01:43:12;;;;;;;5.23;4.73;;;4.50;99.90;;;;;;5008368;28;20485;-54
2020/12/27 01:45:40;;;;;;;4.47;4.07;;;4.50;99.90;;;;;;5009875;28;20997;-53
2020/12/27 01:48:13;;;;;;;5.13;4.20;;;4.50;99.90;;;;;;4991769;28;20529;-55
2020/12/27 01:50:44;;;;;;;4.70;4.20;;;4.50;99.90;;;;;;4992137;28;20510;-54
2020/12/27 01:53:22;;;;;;;4.23;3.90;;;4.50;99.90;;;;;;5008610;28;20503;-54
2020/12/27 01:55:49;;;;;;;4.50;4.10;;;4.50;99.90;;;;;;5009863;28;20503;-54
2020/12/27 01:58:19;;;;;;;4.30;3.90;;;4.60;99.90;;;;;;4991911;28;20547;-54
2020/12/27 02:01:01;;;;;;;4.43;4.03;;;4.50;99.90;;;;;;4987990;28;20484;-54
2020/12/27 02:03:36;;;;;;;4.93;4.30;;;4.50;99.90;;;;;;4997059;28;20480;-54
2020/12/27 02:06:19;;;;;;;4.77;4.27;;;4.60;99.90;;;;;;4991852;28;20482;-54
2020/12/27 02:08:52;;;;;;;6.60;4.10;;;4.60;99.90;;;;;;4988021;28;20555;-54
2020/12/27 02:11:31;;;;;;;4.70;3.70;;;4.60;99.90;;;;;;4987739;28;20500;-54
2020/12/27 02:13:59;;;;;;;3.93;3.63;;;4.60;99.90;;;;;;4989819;28;20546;-54
2020/12/27 02:16:31;;;;;;;4.43;3.80;;;4.60;99.90;;;;;;4988216;28;20872;-53
2020/12/27 02:19:17;;;;;;;4.43;3.43;;;4.60;99.90;;;;;;4989685;28;20832;-53
2020/12/27 02:21:49;;;;;;;4.23;3.70;;;4.70;99.90;;;;;;5003332;28;20479;-55
2020/12/27 02:24:40;;;;;;;3.70;3.30;;;4.70;99.90;;;;;;4995784;28;20565;-55
2020/12/27 02:27:11;;;;;;;4.20;3.23;;;4.70;99.90;;;;;;4999827;28;20530;-53
2020/12/27 02:29:38;;;;;;;3.73;2.93;;;4.70;99.90;;;;;;4989626;28;20489;-53
2020/12/27 02:32:08;;;;;;;4.43;2.97;;;4.70;99.90;;;;;;5013312;28;20578;-53
2020/12/27 02:34:35;;;;;;;3.07;2.77;;;4.70;99.90;;;;;;5006812;28;20488;-54
2020/12/27 02:37:03;;;;;;;2.87;2.63;;;4.70;99.90;;;;;;4991405;28;20483;-55
2020/12/27 02:39:49;;;;;;;3.17;2.87;;;4.80;99.90;;;;;;4991143;28;20983;-54
2020/12/27 02:42:17;;;;;;;5.27;2.53;;;4.70;99.90;;;;;;4990439;28;20478;-54
2020/12/27 02:45:09;;;;;;;2.90;2.60;;;4.80;99.90;;;;;;4990575;28;20574;-53
2020/12/27 02:47:55;;;;;;;2.23;2.00;;;4.80;99.90;;;;;;5008289;28;20479;-54
2020/12/27 02:50:38;;;;;;;2.97;2.67;;;4.80;99.90;;;;;;5006809;28;20984;-54
2020/12/27 02:53:05;;;;;;;2.40;2.20;;;4.80;99.90;;;;;;5008530;28;20534;-53
2020/12/27 02:55:34;;;;;;;3.23;2.47;;;4.80;99.90;;;;;;5007304;28;20529;-54
2020/12/27 02:58:01;;;;;;;2.40;2.17;;;4.80;99.90;;;;;;5008566;28;20472;-55
2020/12/27 03:00:32;;;;;;;2.20;2.00;;;4.80;99.90;;;;;;4990138;28;20476;-54
2020/12/27 03:03:18;;;;;;;4.40;2.20;;;4.80;99.90;;;;;;5007892;28;20471;-54
2020/12/27 03:05:53;;;;;;;2.63;2.13;;;4.80;99.90;;;;;;5007450;28;20993;-53
2020/12/27 03:08:21;;;;;;;2.87;2.27;;;4.80;99.90;;;;;;5008802;28;20535;-53
2020/12/27 03:11:09;;;;;;;2.30;2.10;;;4.80;99.90;;;;;;5007105;28;20536;-54
2020/12/27 03:13:37;;;;;;;2.50;2.07;;;4.80;99.90;;;;;;5006562;28;20998;-55
2020/12/27 03:16:06;;;;;;;2.80;2.00;;;4.80;99.90;;;;;;5008289;28;20560;-55
2020/12/27 03:18:53;;;;;;;2.40;2.20;;;4.90;99.90;;;;;;5007985;28;21324;-54
2020/12/27 03:21:41;;;;;;;2.10;1.90;;;4.90;99.90;;;;;;4966027;28;20489;-54
2020/12/27 03:24:24;;;;;;;2.23;2.03;;;4.90;99.90;;;;;;4996215;28;20525;-53
2020/12/27 03:26:53;;;;;;;2.43;1.70;;;4.90;99.90;;;;;;5006426;28;21093;-54
2020/12/27 03:29:20;;;;;;;3.50;2.10;;;4.90;99.90;;;;;;5008196;28;20465;-53
2020/12/27 03:31:49;;;;;;;1.87;1.77;;;4.90;99.90;;;;;;4989422;28;20486;-54
2020/12/27 03:34:20;;;;;;;1.70;1.60;;;4.90;99.90;;;;;;5005126;28;20475;-54
2020/12/27 03:36:48;;;;;;;1.87;1.77;;;5.00;99.90;;;;;;5004186;28;20483;-54
2020/12/27 03:39:35;;;;;;;2.70;1.57;;;4.90;99.90;;;;;;5005395;28;20519;-54
2020/12/27 03:42:23;;;;;;;2.30;1.60;;;4.90;99.90;;;;;;5004355;28;20561;-53
2020/12/27 03:44:59;;;;;;;1.70;1.60;;;5.00;99.90;;;;;;5004550;28;20683;-54
2020/12/27 03:47:45;;;;;;;1.67;1.57;;;4.90;99.90;;;;;;5006046;28;20489;-55
2020/12/27 03:50:17;;;;;;;2.23;1.80;;;5.00;99.90;;;;;;5006270;28;20479;-54
2020/12/27 03:52:53;;;;;;;2.63;1.77;;;4.90;99.90;;;;;;4990021;28;20487;-53
2020/12/27 03:55:39;;;;;;;2.47;1.33;;;4.90;99.90;;;;;;5007437;28;20482;-54
2020/12/27 03:58:42;;;;;;;2.40;1.60;;;4.90;99.90;;;;;;4997511;28;20482;-54
2020/12/27 04:01:20;;;;;;;1.87;1.70;;;4.90;99.90;;;;;;4993356;28;20830;-54
2020/12/27 04:03:48;;;;;;;2.07;1.73;;;4.90;99.90;;;;;;4990372;28;21007;-53
2020/12/27 04:06:21;;;;;;;2.03;1.30;;;4.90;99.90;;;;;;4991019;28;20472;-54
2020/12/27 04:08:54;;;;;;;1.70;1.30;;;4.90;99.90;;;;;;4974629;28;20534;-54
2020/12/27 04:11:22;;;;;;;1.33;1.23;;;4.90;99.90;;;;;;4974231;28;20473;-54
2020/12/27 04:13:52;;;;;;;2.43;1.20;;;4.90;99.90;;;;;;4974370;28;20561;-54
2020/12/27 04:16:21;;;;;;;2.63;1.40;;;4.90;99.90;;;;;;4990962;28;20858;-53
2020/12/27 04:18:50;;;;;;;2.20;1.50;;;4.90;99.90;;;;;;4974385;28;20481;-54
2020/12/27 04:21:26;;;;;;;1.70;1.60;;;4.80;99.90;;;;;;4999297;28;20478;-54
2020/12/27 04:24:14;;;;;;;3.53;1.47;;;4.80;99.90;;;;;;5008764;28;20474;-54
2020/12/27 04:26:43;;;;;;;2.13;1.83;;;4.70;99.90;;;;;;4999025;28;20482;-54
2020/12/27 04:29:13;;;;;;;2.43;1.60;;;4.70;99.90;;;;;;5009973;28;20471;-53
2020/12/27 04:31:50;;;;;;;1.97;1.70;;;4.60;99.90;;;;;;4992407;28;21063;-53
2020/12/27 04:34:31;;;;;;;2.77;1.80;;;4.50;99.90;;;;;;5006296;28;21029;-54
2020/12/27 04:36:59;;;;;;;2.17;1.97;;;4.50;99.90;;;;;;4993219;28;20478;-54
2020/12/27 04:39:32;;;;;;;4.30;1.70;;;4.50;99.90;;;;;;4993441;28;20491;-54
2020/12/27 04:42:00;;;;;;;2.30;1.80;;;4.40;99.90;;;;;;4992526;28;20468;-54
2020/12/27 04:44:39;;;;;;;2.37;1.73;;;4.40;99.90;;;;;;5009547;28;20484;-54
2020/12/27 04:47:14;;;;;;;2.40;1.60;;;4.30;99.90;;;;;;4993261;28;20479;-54
2020/12/27 04:50:01;;;;;;;3.27;1.80;;;4.30;99.90;;;;;;5010734;28;20564;-55
2020/12/27 04:52:33;;;;;;;1.80;1.70;;;4.30;99.90;;;;;;4992609;28;20483;-56
2020/12/27 04:55:23;;;;;;;3.50;1.80;;;4.30;99.90;;;;;;4993564;28;20473;-54
2020/12/27 04:58:18;;;;;;;2.43;2.17;;;4.30;99.90;;;;;;4989404;28;20843;-54
2020/12/27 05:01:16;;;;;;;2.63;1.90;;;4.30;99.90;;;;;;5002543;28;20474;-54
2020/12/27 05:04:02;;;;;;;3.70;1.90;;;4.30;99.90;;;;;;4992544;28;20590;-56
2020/12/27 05:06:37;;;;;;;2.50;1.60;;;4.30;99.90;;;;;;4992255;28;21024;-55
2020/12/27 05:09:09;;;;;;;2.50;2.00;;;4.30;99.90;;;;;;4992872;28;21199;-54
2020/12/27 05:11:37;;;;;;;1.70;1.60;;;4.20;99.90;;;;;;4972872;28;20477;-55
2020/12/27 05:14:16;;;;;;;3.63;2.10;;;4.20;99.90;;;;;;4970276;28;20499;-54
2020/12/27 05:16:58;;;;;;;4.37;1.90;;;4.20;99.90;;;;;;4986540;28;20922;-54
2020/12/27 05:19:39;;;;;;;1.90;1.40;;;4.20;99.90;;;;;;4970105;28;20482;-54
2020/12/27 05:22:08;;;;;;;2.27;2.00;;;4.20;99.90;;;;;;4966085;28;20490;-53
2020/12/27 05:24:51;;;;;;;4.53;1.77;;;4.20;99.90;;;;;;4985715;28;21024;-54
2020/12/27 05:27:44;;;;;;;2.77;1.97;;;4.20;99.90;;;;;;4968933;28;20551;-54
2020/12/27 05:30:30;;;;;;;3.50;2.20;;;4.20;99.90;;;;;;4984994;28;20580;-53
2020/12/27 05:33:21;;;;;;;2.53;2.33;;;4.10;99.90;;;;;;4970826;28;20472;-54
2020/12/27 05:36:08;;;;;;;2.03;1.90;;;4.10;99.90;;;;;;4971280;28;20496;-54
2020/12/27 05:38:45;;;;;;;3.20;1.57;;;4.10;99.90;;;;;;4986089;28;21072;-54
2020/12/27 05:41:49;;;;;;;4.40;2.20;;;4.20;99.90;;;;;;4957561;28;20480;-56
2020/12/27 05:44:22;;;;;;;2.13;1.80;;;4.10;99.90;;;;;;4970092;28;20478;-53
2020/12/27 05:46:57;;;;;;;2.40;2.00;;;4.10;99.90;;;;;;4969061;28;20567;-53
2020/12/27 05:49:29;;;;;;;2.00;1.50;;;4.10;99.90;;;;;;4969326;28;20480;-55
2020/12/27 05:52:13;;;;;;;5.73;2.50;;;4.10;99.90;;;;;;4970144;28;20478;-54
2020/12/27 05:54:47;;;;;;;2.63;2.33;;;4.10;99.90;;;;;;4985693;28;21076;-53
2020/12/27 05:57:17;;;;;;;2.67;2.13;;;4.10;99.90;;;;;;4969683;28;20479;-55
2020/12/27 05:59:50;;;;;;;2.87;2.50;;;4.10;99.90;;;;;;4985461;28;20991;-54
2020/12/27 06:02:40;;;;;;;3.63;2.07;;;4.10;99.90;;;;;;4983837;28;20565;-54
2020/12/27 06:06:02;;;;;;;3.20;2.17;;;4.10;99.90;;;;;;4969716;28;20558;-54
2020/12/27 06:09:07;;;;;;;2.57;2.37;;;4.10;99.90;;;;;;4968471;28;20487;-54
2020/12/27 06:11:55;;;;;;;3.30;2.37;;;4.10;99.90;;;;;;4984848;28;20490;-54
2020/12/27 06:14:41;;;;;;;3.03;2.33;;;4.10;99.90;;;;;;4988296;28;20532;-54
2020/12/27 06:18:08;;;;;;;2.90;2.40;;;4.10;99.90;;;;;;4967800;28;20724;-55
2020/12/27 06:21:10;;;;;;;3.53;2.07;;;4.10;99.90;;;;;;4981235;28;20468;-56
2020/12/27 06:23:46;;;;;;;4.70;2.20;;;4.10;99.90;;;;;;5004127;28;20485;-56
2020/12/27 06:26:16;;;;;;;3.27;2.13;;;4.10;99.90;;;;;;5004747;28;21050;-56
2020/12/27 06:29:03;;;;;;;2.40;2.20;;;4.10;99.90;;;;;;4988389;28;20722;-54
2020/12/27 06:31:43;;;;;;;2.80;2.37;;;4.10;99.90;;;;;;5001812;28;20495;-55
2020/12/27 06:34:24;;;;;;;3.50;2.60;;;4.10;99.90;;;;;;5003165;28;20476;-54
2020/12/27 06:36:58;;;;;;;3.57;2.40;;;4.10;99.90;;;;;;5003770;28;20504;-54
2020/12/27 06:39:47;;;;;;;2.30;2.10;;;4.10;99.90;;;;;;4987820;28;21015;-54
2020/12/27 06:42:29;;;;;;;2.73;2.30;;;4.10;99.90;;;;;;5003132;28;20479;-54
2020/12/27 06:44:59;;;;;;;2.50;2.20;;;4.10;99.90;;;;;;4986782;28;20480;-54
2020/12/27 06:47:53;;;;;;;2.13;1.90;;;4.10;99.90;;;;;;4987839;28;20951;-54
2020/12/27 06:50:28;;;;;;;3.23;2.50;;;4.10;99.90;;;;;;4986307;28;20559;-54
2020/12/27 06:53:10;;;;;;;2.70;2.43;;;4.00;99.90;;;;;;5002897;28;20487;-56
2020/12/27 06:55:58;;;;;;;2.53;2.30;;;3.90;99.90;;;;;;4987071;28;20474;-54
2020/12/27 06:58:42;;;;;;;4.20;3.37;;;3.90;99.90;;;;;;4985530;28;20489;-55
2020/12/27 07:01:20;;;;;;;3.83;2.70;;;3.80;99.90;;;;;;5002060;28;20490;-54
2020/12/27 07:03:47;;;;;;;3.30;2.60;;;3.80;99.90;;;;;;4987045;28;20482;-53
2020/12/27 07:06:25;;;;;;;3.17;2.60;;;3.80;99.90;;;;;;4988295;28;20475;-54
2020/12/27 07:09:03;;;;;;;2.70;2.30;;;3.80;99.90;;;;;;4987061;28;20588;-53
2020/12/27 07:11:32;;;;;;;2.80;2.60;;;3.80;99.90;;;;;;5002243;28;20689;-54
2020/12/27 07:14:01;;;;;;;2.73;2.30;;;3.80;99.90;;;;;;5004986;28;21064;-54
2020/12/27 07:16:48;;;;;;;2.90;2.27;;;3.80;99.90;;;;;;5006607;28;20514;-54
2020/12/27 07:19:18;;;;;;;3.27;2.50;;;3.80;99.90;;;;;;5005074;28;20542;-54
2020/12/27 07:21:47;;;;;;;2.63;2.20;;;3.80;99.90;;;;;;5006186;28;20481;-54
2020/12/27 07:24:25;;;;;;;3.50;2.40;;;3.80;99.90;;;;;;5005566;28;20550;-53
2020/12/27 07:26:52;;;;;;;2.87;2.40;;;3.80;99.90;;;;;;5007375;28;20538;-55
2020/12/27 07:29:25;;;;;;;3.93;2.20;;;3.80;99.90;;;;;;5006801;28;20473;-54
2020/12/27 07:31:53;;;;;;;3.53;2.27;;;3.80;99.90;;;;;;5005715;28;20983;-55
2020/12/27 07:34:26;;;;;;;2.43;2.20;;;3.80;99.90;;;;;;5006297;28;20480;-56
2020/12/27 07:37:04;;;;;;;4.00;2.00;;;3.80;99.90;;;;;;5006394;28;20503;-54
2020/12/27 07:39:55;;;;;;;3.00;2.17;;;3.70;99.90;;;;;;4986505;28;20533;-53
2020/12/27 07:42:25;;;;;;;2.80;2.30;;;3.70;99.90;;;;;;5006428;28;20561;-53
2020/12/27 07:44:56;;;;;;;3.23;2.20;;;3.70;99.90;;;;;;5005098;28;20484;-53
2020/12/27 07:47:24;;;;;;;2.53;2.33;;;3.70;99.90;;;;;;5006281;28;20465;-56
2020/12/27 07:50:08;;;;;;;2.27;2.07;;;3.70;99.90;;;;;;5006212;28;20476;-54
2020/12/27 07:52:47;;;;;;;2.57;1.90;;;3.70;99.90;;;;;;5005720;28;20479;-53
2020/12/27 07:55:27;;;;;;;4.47;1.83;;;3.70;99.90;;;;;;5006683;28;20492;-55
2020/12/27 07:57:57;;;;;;;2.40;2.20;;;3.70;99.90;;;;;;5006861;28;20486;-53
2020/12/27 08:00:32;;;;;;;2.23;2.03;;;3.70;99.90;;;;;;5003849;28;20561;-54
2020/12/27 08:03:04;;;;;;;4.20;2.50;;;3.70;99.90;;;;;;4986300;28;20496;-54
2020/12/27 08:05:31;;;;;;;5.77;2.47;;;3.70;99.90;;;;;;4986860;28;20483;-53
2020/12/27 08:08:06;;;;;;;2.87;2.23;;;3.70;99.90;;;;;;4987169;28;20826;-55
2020/12/27 08:10:35;;;;;;;2.50;2.17;;;3.70;99.90;;;;;;4992945;28;21034;-54
2020/12/27 08:13:05;;;;;;;1.97;1.77;;;3.70;99.90;;;;;;5001879;28;20576;-54
2020/12/27 08:15:37;;;;;;;2.20;2.00;;;3.70;99.90;;;;;;5002948;28;20536;-54
2020/12/27 08:18:06;;;;;;;2.40;1.90;;;3.70;99.90;;;;;;5006391;28;21098;-53
2020/12/27 08:20:45;;;;;;;2.30;2.10;;;3.70;99.90;;;;;;5004548;28;20583;-54
2020/12/27 08:23:14;;;;;;;4.20;2.60;;;3.80;99.90;;;;;;4986031;28;21123;-54
2020/12/27 08:25:42;;;;;;;3.83;2.20;;;3.80;99.90;;;;;;4985969;28;20479;-54
2020/12/27 08:28:11;;;;;;;5.27;2.50;;;3.70;99.90;;;;;;4985804;28;20849;-55
2020/12/27 08:30:39;;;;;;;3.60;2.50;;;3.70;99.90;;;;;;4988970;28;20511;-54
2020/12/27 08:33:10;;;;;;;3.53;2.67;;;3.80;99.90;;;;;;4996233;28;20553;-53
2020/12/27 08:35:41;;;;;;;2.37;2.17;;;3.70;99.90;;;;;;5000048;28;20508;-54
2020/12/27 08:38:32;;;;;;;2.33;2.13;;;3.80;99.90;;;;;;5004794;28;20497;-54
2020/12/27 08:41:09;;;;;;;3.07;2.00;;;3.80;99.90;;;;;;5005862;28;20512;-53
2020/12/27 08:44:16;;;;;;;2.50;2.03;;;3.70;99.90;;;;;;5008625;28;20517;-54
2020/12/27 08:46:48;;;;;;;2.90;1.90;;;3.70;99.90;;;;;;4993450;28;21068;-54
2020/12/27 08:49:31;;;;;;;4.57;2.17;;;3.70;99.90;;;;;;5011153;28;20557;-54
2020/12/27 08:52:05;;;;;;;2.90;2.00;;;3.70;99.90;;;;;;5010622;28;20507;-54
2020/12/27 08:54:33;;;;;;;2.50;1.80;;;3.70;99.90;;;;;;5010768;28;20619;-54
2020/12/27 08:57:04;;;;;;;2.50;2.10;;;3.70;99.90;;;;;;5010876;28;21063;-54
2020/12/27 08:59:31;;;;;;;3.90;2.03;;;3.70;99.90;;;;;;5010588;28;20531;-54
2020/12/27 09:02:09;;;;;;;2.87;2.07;;;3.70;99.90;;;;;;5009528;28;20515;-54
2020/12/27 09:04:37;;;;;;;1.80;1.67;;;3.70;99.90;;;;;;5007137;28;20486;-54
2020/12/27 09:07:06;;;;;;;3.00;2.20;;;3.70;99.90;;;;;;5009885;28;20486;-53
2020/12/27 09:09:33;;;;;;;3.03;2.20;;;3.70;99.90;;;;;;5009949;28;20493;-53
2020/12/27 09:12:09;;;;;;;3.33;2.30;;;3.70;99.90;;;;;;5011720;28;20506;-54
2020/12/27 09:14:38;;;;;;;3.47;2.50;;;3.70;99.90;;;;;;5009061;28;20490;-54
2020/12/27 09:17:08;;;;;;;2.67;2.20;;;3.70;99.90;;;;;;5010490;28;20504;-54
2020/12/27 09:19:36;;;;;;;3.30;2.10;;;3.70;99.90;;;;;;5010258;28;20484;-53
2020/12/27 09:22:06;;;;;;;2.63;2.30;;;3.70;99.90;;;;;;5010170;28;20887;-55
2020/12/27 09:24:33;;;;;;;2.33;2.00;;;3.70;99.90;;;;;;5010195;28;20562;-54
2020/12/27 09:27:09;;;;;;;2.30;2.10;;;3.70;99.90;;;;;;5009951;28;20545;-54
2020/12/27 09:29:38;;;;;;;3.40;2.20;;;3.80;99.90;;;;;;5004555;28;20484;-55
2020/12/27 09:32:09;;;;;;;3.00;2.70;;;3.80;99.90;;;;;;4996282;28;20488;-56
2020/12/27 09:34:37;;;;;;;3.30;2.37;;;3.80;99.90;;;;;;5000347;28;20571;-54
2020/12/27 09:37:16;;;;;;;3.23;2.27;;;3.80;99.90;;;;;;4999338;28;20487;-54
2020/12/27 09:39:45;;;;;;;2.47;2.27;;;3.80;99.90;;;;;;4999520;28;20913;-54
2020/12/27 09:42:25;;;;;;;3.17;2.60;;;3.80;99.90;;;;;;5000055;28;20485;-56
2020/12/27 09:44:53;;;;;;;4.20;2.73;;;3.80;99.90;;;;;;5000355;28;21518;-54
2020/12/27 09:47:25;;;;;;;3.60;3.00;;;3.90;99.90;;;;;;4998774;28;20484;-54
2020/12/27 09:50:06;;;;;;;3.67;3.07;;;3.80;99.90;;;;;;5000085;28;20681;-53
2020/12/27 09:52:44;;;;;;;3.23;2.77;;;3.80;99.90;;;;;;4999782;28;21045;-54
2020/12/27 09:55:11;;;;;;;3.77;2.77;;;3.90;99.90;;;;;;4999977;28;20932;-56
2020/12/27 09:57:41;;;;;;;3.07;2.60;;;3.90;99.90;;;;;;4997390;28;21034;-54
2020/12/27 10:00:09;;;;;;;2.80;2.23;;;3.90;99.90;;;;;;4999338;28;20489;-54
2020/12/27 10:02:36;;;;;;;2.73;2.43;;;3.90;99.90;;;;;;4998372;28;20884;-54
2020/12/27 10:05:09;;;;;;;3.40;2.80;;;3.90;99.90;;;;;;4999936;28;20960;-56
2020/12/27 10:07:36;;;;;;;3.10;2.60;;;3.90;99.90;;;;;;5003161;28;20571;-54
2020/12/27 10:10:05;;;;;;;3.07;2.50;;;4.00;99.90;;;;;;4997976;28;20537;-55
2020/12/27 10:12:34;;;;;;;3.50;2.83;;;4.00;99.90;;;;;;5007064;28;21280;-56
2020/12/27 10:15:03;;;;;;;4.20;3.00;;;4.00;99.90;;;;;;5007735;28;20494;-54
2020/12/27 10:17:30;;;;;;;3.23;2.40;;;4.00;99.90;;;;;;5008186;28;20526;-54
2020/12/27 10:19:59;;;;;;;3.07;2.10;;;4.10;99.90;;;;;;5009009;28;20470;-54
2020/12/27 10:22:27;;;;;;;3.67;2.40;;;4.10;99.90;;;;;;5008599;28;20484;-54
2020/12/27 10:24:55;;;;;;;2.77;2.17;;;4.10;99.90;;;;;;5008875;28;20476;-53
2020/12/27 10:27:22;;;;;;;3.30;2.40;;;4.10;99.90;;;;;;5008768;28;20472;-53
2020/12/27 10:29:50;;;;;;;2.60;2.40;;;4.10;99.90;;;;;;5008581;28;20526;-54
2020/12/27 10:32:18;;;;;;;4.27;2.43;;;4.10;99.90;;;;;;5006950;28;20624;-54
2020/12/27 10:34:45;;;;;;;2.67;2.20;;;4.20;99.90;;;;;;5006955;28;20886;-53
2020/12/27 10:37:13;;;;;;;2.63;2.00;;;4.20;99.90;;;;;;5006814;28;20498;-54
2020/12/27 10:39:40;;;;;;;2.67;2.17;;;4.20;99.90;;;;;;5007697;28;20575;-54
2020/12/27 10:42:08;;;;;;;2.10;1.90;;;4.20;99.90;;;;;;5006902;28;20484;-55
2020/12/27 10:44:35;;;;;;;3.00;2.00;;;4.30;99.90;;;;;;5007344;28;20986;-54
2020/12/27 10:47:02;;;;;;;2.77;2.17;;;4.30;99.90;;;;;;5007035;28;20849;-54
2020/12/27 10:49:31;;;;;;;2.90;2.20;;;4.30;99.90;;;;;;5007256;28;20509;-54
2020/12/27 10:51:58;;;;;;;3.03;2.20;;;4.30;99.90;;;;;;5006233;28;20568;-54
2020/12/27 10:54:25;;;;;;;2.60;2.27;;;4.30;99.90;;;;;;4989870;28;20480;-54
2020/12/27 10:56:52;;;;;;;3.13;2.40;;;4.30;99.90;;;;;;5006795;28;20478;-55
2020/12/27 10:59:20;;;;;;;2.40;2.20;;;4.30;99.90;;;;;;5007551;28;20551;-53
2020/12/27 11:01:49;;;;;;;1.70;1.60;;;4.30;99.90;;;;;;5005789;28;20668;-54
2020/12/27 11:04:16;;;;;;;2.17;1.97;;;4.30;99.90;;;;;;5006164;28;20586;-54
2020/12/27 11:06:44;;;;;;;2.63;2.20;;;4.30;99.90;;;;;;5004467;28;20544;-55
2020/12/27 11:09:12;;;;;;;4.70;2.13;;;4.30;99.90;;;;;;5004720;28;20552;-55
2020/12/27 11:11:39;;;;;;;1.87;1.67;;;4.30;99.90;;;;;;5005842;28;20549;-54
2020/12/27 11:14:07;;;;;;;2.63;2.40;;;4.30;99.90;;;;;;5006793;28;20492;-53
2020/12/27 11:16:35;;;;;;;3.03;2.47;;;4.20;99.90;;;;;;5005458;28;20489;-53
2020/12/27 11:19:03;;;;;;;2.57;2.20;;;4.20;99.90;;;;;;4999798;28;20492;-54
2020/12/27 11:21:31;;;;;;;2.53;2.23;;;4.20;99.90;;;;;;4991390;28;20513;-54
2020/12/27 11:23:59;;;;;;;2.70;2.13;;;4.20;99.90;;;;;;5006768;28;20540;-54
2020/12/27 11:26:26;;;;;;;3.10;1.40;;;4.20;99.90;;;;;;5006563;28;21151;-54
2020/12/27 11:28:53;;;;;;;2.73;2.03;;;4.20;99.90;;;;;;5002201;28;20461;-54
2020/12/27 11:31:21;;;;;;;2.13;1.77;;;4.20;99.90;;;;;;5005483;28;20478;-55
2020/12/27 11:33:48;;;;;;;3.67;2.13;;;4.20;99.90;;;;;;5006650;28;20579;-55
2020/12/27 11:36:16;;;;;;;2.90;1.60;;;4.10;99.90;;;;;;5006417;28;20478;-54
2020/12/27 11:38:44;;;;;;;3.13;1.90;;;4.10;99.90;;;;;;5006385;28;20508;-54
2020/12/27 11:41:14;;;;;;;3.17;2.00;;;4.10;99.90;;;;;;5006616;28;20548;-54
2020/12/27 11:43:42;;;;;;;3.50;2.53;;;4.10;99.90;;;;;;5006462;28;20493;-54
2020/12/27 11:46:10;;;;;;;6.03;2.40;;;4.10;99.90;;;;;;5005717;28;20505;-54
2020/12/27 11:48:38;;;;;;;2.93;2.40;;;4.10;99.90;;;;;;5006837;28;20507;-56
2020/12/27 11:51:05;;;;;;;2.93;2.20;;;4.10;99.90;;;;;;5006298;28;20479;-55
2020/12/27 11:53:51;;;;;;;4.67;2.73;;;4.10;99.90;;;;;;5006404;28;20474;-54
2020/12/27 11:56:21;;;;;;;2.87;2.40;;;4.10;99.90;;;;;;5005959;28;20243;-54
2020/12/27 11:58:49;;;;;;;2.67;2.47;;;4.10;99.90;;;;;;5006806;28;20908;-53
2020/12/27 12:01:17;;;;;;;2.57;2.10;;;4.10;99.90;;;;;;5004345;28;20542;-55
2020/12/27 12:03:44;;;;;;;3.10;2.30;;;4.10;99.90;;;;;;5008682;28;20586;-55
2020/12/27 12:06:13;;;;;;;3.67;2.40;;;4.10;99.90;;;;;;5003939;28;20503;-53
2020/12/27 12:08:40;;;;;;;4.07;2.73;;;4.10;99.90;;;;;;5005704;28;20484;-54
2020/12/27 12:11:09;;;;;;;3.97;2.50;;;4.10;99.90;;;;;;5005200;28;20901;-54
2020/12/27 12:13:37;;;;;;;3.03;2.50;;;4.10;99.90;;;;;;5005227;28;20719;-55
2020/12/27 12:16:05;;;;;;;3.00;2.70;;;4.10;99.90;;;;;;5005786;28;20548;-56
2020/12/27 12:18:32;;;;;;;2.90;2.57;;;4.10;99.90;;;;;;5009095;28;20566;-56
2020/12/27 12:20:59;;;;;;;3.53;2.80;;;4.10;99.90;;;;;;5009891;28;20571;-55
2020/12/27 12:23:26;;;;;;;3.10;2.80;;;4.20;99.90;;;;;;5009958;28;20846;-57
2020/12/27 12:25:54;;;;;;;3.57;2.63;;;4.20;99.90;;;;;;5009990;28;20604;-56
2020/12/27 12:28:21;;;;;;;3.43;2.53;;;4.20;99.90;;;;;;5010003;28;20875;-56
2020/12/27 12:30:49;;;;;;;4.60;2.50;;;4.10;99.90;;;;;;5008844;28;20482;-55
2020/12/27 12:33:17;;;;;;;4.23;2.80;;;4.20;99.90;;;;;;5009578;28;20487;-55
2020/12/27 12:35:44;;;;;;;5.43;2.43;;;4.20;99.90;;;;;;5009003;28;21508;-56
2020/12/27 12:38:12;;;;;;;4.77;3.50;;;4.20;99.90;;;;;;5009470;28;20532;-54
2020/12/27 12:40:39;;;;;;;4.97;2.37;;;4.20;99.90;;;;;;5009407;28;20491;-55
2020/12/27 12:43:07;;;;;;;3.07;1.97;;;4.20;99.90;;;;;;5009645;28;21042;-55
2020/12/27 12:45:34;;;;;;;3.83;2.30;;;4.30;99.90;;;;;;5009732;28;20563;-55
2020/12/27 12:48:02;;;;;;;1.87;1.70;;;4.30;99.90;;;;;;5009503;28;20507;-56
2020/12/27 12:50:30;;;;;;;2.60;2.20;;;4.40;99.90;;;;;;5008887;28;20557;-54
2020/12/27 12:52:57;;;;;;;2.53;2.10;;;4.40;99.90;;;;;;5006508;28;20502;-54
2020/12/27 12:55:24;;;;;;;3.03;2.20;;;4.40;99.90;;;;;;5006351;28;20482;-55
2020/12/27 12:57:52;;;;;;;1.97;1.70;;;4.40;99.90;;;;;;5006327;28;20482;-54
2020/12/27 13:00:19;;;;;;;3.00;2.00;;;4.40;99.90;;;;;;5007750;28;20879;-54
2020/12/27 13:02:47;;;;;;;2.07;1.93;;;4.50;99.90;;;;;;5003667;28;20489;-55
2020/12/27 13:05:15;;;;;;;2.03;1.67;;;4.50;99.90;;;;;;5005235;28;20479;-56
2020/12/27 13:07:42;;;;;;;1.57;1.43;;;4.50;99.90;;;;;;5008384;28;20991;-54
2020/12/27 13:10:10;;;;;;;1.80;1.60;;;4.50;99.90;;;;;;5010294;28;20502;-56
2020/12/27 13:12:57;;;;;;;2.20;2.00;;;4.50;99.90;;;;;;5014319;28;20486;-54
2020/12/27 13:15:25;;;;;;;4.10;1.80;;;4.50;99.90;;;;;;5015941;28;20530;-56
2020/12/27 13:17:52;;;;;;;2.57;2.00;;;4.50;99.90;;;;;;5009013;28;20570;-56
2020/12/27 13:20:21;;;;;;;3.80;1.80;;;4.50;99.90;;;;;;5008279;28;20510;-54
2020/12/27 13:22:48;;;;;;;3.97;1.87;;;4.50;99.90;;;;;;5008420;28;20534;-55
2020/12/27 13:25:15;;;;;;;2.47;1.60;;;4.50;99.90;;;;;;5009262;28;20480;-55
2020/12/27 13:27:44;;;;;;;1.70;1.60;;;4.60;99.90;;;;;;5007538;28;20946;-56
2020/12/27 13:30:13;;;;;;;1.97;1.80;;;4.50;99.90;;;;;;5007665;28;20523;-56